createdAt,value
2018-05-11T00:02:03.216Z,12.00
2018-05-11T00:04:32.482Z,11.60
2018-05-11T00:07:00.808Z,9.83
2018-05-11T00:09:29.125Z,8.13
2018-05-11T00:11:58.206Z,9.27
2018-05-11T00:14:27.297Z,12.90
2018-05-11T00:16:55.620Z,9.30
2018-05-11T00:19:23.944Z,8.97
2018-05-11T00:21:52.246Z,11.97
2018-05-11T00:24:20.588Z,14.83
2018-05-11T00:26:48.910Z,9.00
2018-05-11T00:29:17.305Z,6.63
2018-05-11T00:31:46.378Z,10.13
2018-05-11T00:34:14.775Z,9.20
2018-05-11T00:36:43.073Z,7.47
2018-05-11T00:39:12.364Z,7.90
2018-05-11T00:41:41.450Z,10.60
2018-05-11T00:44:09.856Z,8.87
2018-05-11T00:46:38.918Z,10.77
2018-05-11T00:49:07.219Z,11.23
2018-05-11T00:51:36.319Z,9.63
2018-05-11T00:54:04.618Z,8.57
2018-05-11T00:56:33.705Z,11.53
2018-05-11T00:59:02.015Z,7.53
2018-05-11T01:01:30.347Z,9.30
2018-05-11T01:03:58.649Z,10.43
2018-05-11T01:06:27.728Z,11.97
2018-05-11T01:08:56.041Z,9.47
2018-05-11T01:11:25.143Z,13.30
2018-05-11T01:13:53.469Z,10.43
2018-05-11T01:16:21.810Z,10.93
2018-05-11T01:18:50.117Z,9.47
2018-05-11T01:21:18.423Z,10.07
2018-05-11T01:23:46.741Z,8.30
2018-05-11T01:26:15.822Z,8.50
2018-05-11T01:28:44.148Z,9.10
2018-05-11T01:31:12.464Z,12.90
2018-05-11T01:33:41.824Z,13.67
2018-05-11T01:36:10.136Z,12.03
2018-05-11T01:38:38.462Z,11.77
2018-05-11T01:41:07.542Z,12.10
2018-05-11T01:43:35.851Z,11.47
2018-05-11T01:46:04.920Z,9.23
2018-05-11T01:48:33.268Z,14.80
2018-05-11T01:51:01.561Z,8.97
2018-05-11T01:53:29.868Z,11.70
2018-05-11T01:55:58.208Z,11.10
2018-05-11T01:58:26.527Z,11.17
2018-05-11T02:00:54.871Z,16.30
2018-05-11T02:03:23.182Z,15.47
2018-05-11T02:05:51.520Z,11.53
2018-05-11T02:08:19.832Z,13.20
2018-05-11T02:10:48.158Z,9.97
2018-05-11T02:13:17.221Z,7.83
2018-05-11T02:15:45.545Z,9.83
2018-05-11T02:18:14.647Z,10.37
2018-05-11T02:20:43.075Z,10.03
2018-05-11T02:23:11.397Z,11.30
2018-05-11T02:25:41.126Z,13.63
2018-05-11T02:28:09.454Z,8.50
2018-05-11T02:30:39.137Z,10.63
2018-05-11T02:33:07.619Z,8.73
2018-05-11T02:35:36.067Z,10.37
2018-05-11T02:38:04.543Z,9.83
2018-05-11T02:40:33.125Z,10.70
2018-05-11T02:43:02.475Z,9.07
2018-05-11T02:45:31.331Z,10.90
2018-05-11T02:47:59.784Z,10.13
2018-05-11T02:50:28.111Z,8.77
2018-05-11T02:52:57.196Z,8.77
2018-05-11T02:55:25.538Z,14.97
2018-05-11T02:57:53.831Z,6.90
2018-05-11T03:00:22.155Z,7.87
2018-05-11T03:02:51.226Z,10.37
2018-05-11T03:05:19.551Z,12.57
2018-05-11T03:07:47.858Z,13.83
2018-05-11T03:10:16.187Z,10.77
2018-05-11T03:12:45.259Z,8.63
2018-05-11T03:15:14.511Z,10.60
2018-05-11T03:17:42.822Z,9.90
2018-05-11T03:20:11.115Z,9.43
2018-05-11T03:22:39.441Z,8.40
2018-05-11T03:25:08.544Z,14.70
2018-05-11T03:27:36.925Z,9.13
2018-05-11T03:30:06.004Z,12.23
2018-05-11T03:32:35.363Z,8.80
2018-05-11T03:35:03.672Z,10.03
2018-05-11T03:37:33.022Z,10.33
2018-05-11T03:40:02.115Z,16.23
2018-05-11T03:42:31.255Z,10.03
2018-05-11T03:44:59.562Z,8.33
2018-05-11T03:47:27.885Z,9.77
2018-05-11T03:49:56.968Z,13.90
2018-05-11T03:52:26.049Z,14.63
2018-05-11T03:54:54.382Z,7.70
2018-05-11T03:57:22.689Z,12.10
2018-05-11T03:59:51.017Z,10.90
2018-05-11T04:02:31.902Z,13.90
2018-05-11T04:05:12.218Z,9.67
2018-05-11T04:07:53.293Z,10.70
2018-05-11T04:10:21.638Z,10.33
2018-05-11T04:12:49.943Z,11.80
2018-05-11T04:15:19.206Z,11.90
2018-05-11T04:17:47.522Z,12.57
2018-05-11T04:20:15.835Z,10.17
2018-05-11T04:22:44.940Z,10.43
2018-05-11T04:25:13.265Z,9.67
2018-05-11T04:27:41.599Z,12.23
2018-05-11T04:30:10.741Z,13.60
2018-05-11T04:32:39.801Z,13.67
2018-05-11T04:35:08.878Z,10.47
2018-05-11T04:37:37.257Z,14.10
2018-05-11T04:40:06.371Z,11.37
2018-05-11T04:42:35.467Z,11.23
2018-05-11T04:45:04.541Z,12.07
2018-05-11T04:47:32.897Z,13.67
2018-05-11T04:50:01.195Z,13.90
2018-05-11T04:52:29.532Z,12.27
2018-05-11T04:54:57.979Z,14.00
2018-05-11T04:57:26.305Z,9.10
2018-05-11T04:59:54.598Z,14.43
2018-05-11T05:02:22.942Z,12.00
2018-05-11T05:04:52.074Z,13.43
2018-05-11T05:07:20.370Z,13.40
2018-05-11T05:09:48.691Z,13.90
2018-05-11T05:12:17.079Z,16.27
2018-05-11T05:14:45.379Z,11.03
2018-05-11T05:17:13.688Z,17.00
2018-05-11T05:19:42.027Z,11.80
2018-05-11T05:22:11.129Z,11.63
2018-05-11T05:24:40.202Z,15.10
2018-05-11T05:27:08.526Z,12.70
2018-05-11T05:29:36.848Z,11.40
2018-05-11T05:32:05.160Z,12.93
2018-05-11T05:34:34.226Z,12.90
2018-05-11T05:37:02.580Z,11.47
2018-05-11T05:39:30.879Z,13.43
2018-05-11T05:41:59.195Z,11.73
2018-05-11T05:44:27.562Z,15.30
2018-05-11T05:46:55.857Z,12.97
2018-05-11T05:49:24.184Z,13.27
2018-05-11T05:51:52.499Z,12.87
2018-05-11T05:54:20.857Z,13.90
2018-05-11T05:56:49.166Z,14.07
2018-05-11T05:59:17.494Z,12.63
2018-05-11T06:01:45.827Z,12.40
2018-05-11T06:04:14.160Z,13.10
2018-05-11T06:06:42.998Z,9.13
2018-05-11T06:09:11.480Z,13.50
2018-05-11T06:11:39.814Z,10.53
2018-05-11T06:14:08.198Z,12.43
2018-05-11T06:16:37.691Z,11.87
2018-05-11T06:19:06.142Z,11.60
2018-05-11T06:21:34.500Z,11.20
2018-05-11T06:24:02.818Z,15.47
2018-05-11T06:26:31.150Z,9.93
2018-05-11T06:28:59.476Z,12.23
2018-05-11T06:31:27.820Z,15.23
2018-05-11T06:33:56.126Z,12.13
2018-05-11T06:36:24.436Z,9.20
2018-05-11T06:38:52.795Z,11.90
2018-05-11T06:41:21.115Z,13.10
2018-05-11T06:43:50.202Z,11.37
2018-05-11T06:46:18.501Z,9.53
2018-05-11T06:48:46.842Z,12.40
2018-05-11T06:51:15.168Z,15.17
2018-05-11T06:53:44.270Z,10.57
2018-05-11T06:56:12.563Z,9.60
2018-05-11T06:58:40.879Z,8.17
2018-05-11T07:01:09.200Z,6.30
2018-05-11T07:03:38.265Z,8.63
2018-05-11T07:06:06.605Z,7.10
2018-05-11T07:08:35.500Z,10.83
2018-05-11T07:11:03.827Z,9.23
2018-05-11T07:13:32.134Z,9.87
2018-05-11T07:16:01.232Z,8.63
2018-05-11T07:18:30.313Z,8.33
2018-05-11T07:20:59.417Z,8.90
2018-05-11T07:23:27.723Z,7.10
2018-05-11T07:25:56.795Z,7.87
2018-05-11T07:28:25.895Z,10.00
2018-05-11T07:30:54.300Z,8.77
2018-05-11T07:33:23.423Z,7.77
2018-05-11T07:35:51.759Z,9.10
2018-05-11T07:38:20.071Z,10.13
2018-05-11T07:40:48.376Z,7.20
2018-05-11T07:43:16.794Z,10.73
2018-05-11T07:45:45.806Z,9.47
2018-05-11T07:48:14.159Z,8.90
2018-05-11T07:50:42.518Z,13.00
2018-05-11T07:53:10.833Z,9.47
2018-05-11T07:55:39.158Z,5.70
2018-05-11T07:58:07.470Z,6.70
2018-05-11T08:00:35.894Z,6.57
2018-05-11T08:03:04.193Z,6.27
2018-05-11T08:05:33.281Z,8.80
2018-05-11T08:08:02.385Z,6.50
2018-05-11T08:10:31.543Z,7.17
2018-05-11T08:12:59.838Z,6.40
2018-05-11T08:15:28.146Z,5.20
2018-05-11T08:17:57.223Z,7.47
2018-05-11T08:20:25.535Z,4.87
2018-05-11T08:22:54.658Z,5.33
2018-05-11T08:25:22.975Z,5.83
2018-05-11T08:27:51.306Z,7.78
2018-05-11T08:30:19.619Z,4.23
2018-05-11T08:32:47.949Z,4.75
2018-05-11T08:35:17.032Z,5.68
2018-05-11T08:37:45.353Z,4.20
2018-05-11T08:40:14.198Z,6.40
2018-05-11T08:42:43.711Z,5.22
2018-05-11T08:45:12.041Z,6.78
2018-05-11T08:47:41.027Z,3.37
2018-05-11T08:50:09.368Z,4.55
2018-05-11T08:52:38.861Z,4.22
2018-05-11T08:55:08.000Z,4.85
2018-05-11T08:57:38.082Z,3.53
2018-05-11T09:00:06.513Z,4.03
2018-05-11T09:02:36.398Z,4.28
2018-05-11T09:05:04.861Z,6.03
2018-05-11T09:07:33.199Z,4.75
2018-05-11T09:10:02.282Z,4.32
2018-05-11T09:12:31.661Z,3.97
2018-05-11T09:14:59.979Z,3.58
2018-05-11T09:17:29.077Z,3.75
2018-05-11T09:19:58.149Z,5.07
2018-05-11T09:22:26.471Z,4.20
2018-05-11T09:24:54.771Z,7.18
2018-05-11T09:27:23.089Z,6.33
2018-05-11T09:29:52.914Z,5.10
2018-05-11T09:32:21.249Z,5.00
2018-05-11T09:34:49.574Z,4.15
2018-05-11T09:37:17.926Z,5.15
2018-05-11T09:39:46.718Z,3.87
2018-05-11T09:42:15.035Z,4.93
2018-05-11T09:44:43.357Z,5.10
2018-05-11T09:47:11.690Z,3.90
2018-05-11T09:49:40.020Z,6.05
2018-05-11T09:52:08.330Z,7.10
2018-05-11T09:54:36.666Z,7.87
2018-05-11T09:57:05.751Z,3.80
2018-05-11T09:59:34.866Z,3.65
2018-05-11T10:02:03.971Z,7.43
2018-05-11T10:04:32.309Z,4.65
2018-05-11T10:07:00.609Z,5.43
2018-05-11T10:09:29.679Z,7.03
2018-05-11T10:11:58.028Z,4.03
2018-05-11T10:14:26.333Z,3.17
2018-05-11T10:16:54.684Z,5.10
2018-05-11T10:19:23.021Z,4.10
2018-05-11T10:21:51.355Z,4.03
2018-05-11T10:24:19.717Z,4.80
2018-05-11T10:26:48.036Z,3.43
2018-05-11T10:29:16.360Z,3.53
2018-05-11T10:31:45.452Z,4.33
2018-05-11T10:34:13.767Z,4.20
2018-05-11T10:36:42.108Z,6.53
2018-05-11T10:39:10.421Z,6.75
2018-05-11T10:41:39.494Z,3.83
2018-05-11T10:44:07.828Z,5.12
2018-05-11T10:46:36.147Z,4.95
2018-05-11T10:49:04.465Z,4.35
2018-05-11T10:51:32.774Z,3.37
2018-05-11T10:54:01.105Z,3.72
2018-05-11T10:56:29.410Z,3.63
2018-05-11T10:58:57.798Z,4.13
2018-05-11T11:01:26.137Z,2.93
2018-05-11T11:03:56.996Z,4.63
2018-05-11T11:06:26.070Z,5.00
2018-05-11T11:08:54.411Z,4.43
2018-05-11T11:11:22.704Z,5.00
2018-05-11T11:13:51.049Z,4.27
2018-05-11T11:16:19.405Z,4.15
2018-05-11T11:18:47.721Z,3.78
2018-05-11T11:21:16.144Z,3.55
2018-05-11T11:23:44.438Z,3.67
2018-05-11T11:26:13.543Z,3.87
2018-05-11T11:28:41.849Z,4.72
2018-05-11T11:31:10.967Z,4.03
2018-05-11T11:33:39.322Z,3.67
2018-05-11T11:36:08.488Z,6.10
2018-05-11T11:38:36.870Z,4.40
2018-05-11T11:41:05.204Z,5.17
2018-05-11T11:43:34.460Z,5.60
2018-05-11T11:46:02.783Z,4.20
2018-05-11T11:48:31.087Z,5.03
2018-05-11T11:51:00.382Z,7.63
2018-05-11T11:53:28.672Z,6.53
2018-05-11T11:55:56.968Z,5.30
2018-05-11T11:58:25.697Z,3.83
2018-05-11T12:00:53.996Z,5.83
2018-05-11T12:03:22.451Z,4.23
2018-05-11T12:05:50.911Z,4.73
2018-05-11T12:08:19.236Z,4.23
2018-05-11T12:10:48.372Z,4.73
2018-05-11T12:13:16.786Z,4.70
2018-05-11T12:15:45.192Z,4.90
2018-05-11T12:18:13.506Z,4.23
2018-05-11T12:20:41.811Z,4.10
2018-05-11T12:23:10.113Z,3.47
2018-05-11T12:25:38.446Z,4.90
2018-05-11T12:28:07.510Z,3.70
2018-05-11T12:30:35.872Z,6.33
2018-05-11T12:33:04.171Z,3.83
2018-05-11T12:35:33.525Z,5.37
2018-05-11T12:38:01.845Z,4.90
2018-05-11T12:40:30.192Z,5.83
2018-05-11T12:42:58.512Z,5.27
2018-05-11T12:45:26.845Z,3.70
2018-05-11T12:47:55.177Z,3.83
2018-05-11T12:50:23.487Z,6.50
2018-05-11T12:52:52.697Z,3.63
2018-05-11T12:55:20.955Z,5.10
2018-05-11T12:57:49.309Z,5.20
2018-05-11T13:00:17.649Z,5.07
2018-05-11T13:02:45.959Z,6.87
2018-05-11T13:05:14.283Z,2.70
2018-05-11T13:07:42.645Z,6.57
2018-05-11T13:10:10.971Z,3.73
2018-05-11T13:12:39.305Z,3.43
2018-05-11T13:15:07.627Z,5.07
2018-05-11T13:17:36.741Z,3.43
2018-05-11T13:20:05.131Z,3.33
2018-05-11T13:22:33.447Z,3.90
2018-05-11T13:25:01.763Z,5.03
2018-05-11T13:27:30.828Z,6.30
2018-05-11T13:29:59.166Z,4.33
2018-05-11T13:32:27.466Z,6.30
2018-05-11T13:34:55.797Z,6.03
2018-05-11T13:37:24.855Z,4.33
2018-05-11T13:39:53.211Z,3.53
2018-05-11T13:42:21.535Z,4.70
2018-05-11T13:44:49.845Z,2.73
2018-05-11T13:47:18.943Z,4.43
2018-05-11T13:49:48.033Z,4.10
2018-05-11T13:52:17.564Z,5.93
2018-05-11T13:54:46.019Z,4.27
2018-05-11T13:57:15.362Z,4.10
2018-05-11T13:59:43.701Z,5.87
2018-05-11T14:02:12.048Z,3.53
2018-05-11T14:04:40.454Z,4.40
2018-05-11T14:07:10.447Z,3.73
2018-05-11T14:09:38.754Z,5.77
2018-05-11T14:12:07.046Z,6.23
2018-05-11T14:14:35.399Z,3.90
2018-05-11T14:17:03.703Z,3.90
2018-05-11T14:19:32.055Z,4.60
2018-05-11T14:22:00.373Z,5.20
2018-05-11T14:24:28.729Z,4.20
2018-05-11T14:26:57.038Z,5.60
2018-05-11T14:29:25.516Z,3.90
2018-05-11T14:31:53.794Z,5.00
2018-05-11T14:34:23.306Z,5.77
2018-05-11T14:36:52.546Z,3.10
2018-05-11T14:39:22.718Z,4.97
2018-05-11T14:41:52.024Z,5.27
2018-05-11T14:44:20.627Z,3.50
2018-05-11T14:46:48.957Z,5.50
2018-05-11T14:49:17.605Z,5.53
2018-05-11T14:51:45.969Z,4.40
2018-05-11T14:54:14.668Z,4.43
2018-05-11T14:56:43.160Z,6.70
2018-05-11T14:59:11.477Z,5.87
2018-05-11T15:01:39.794Z,4.27
2018-05-11T15:04:08.127Z,4.07
2018-05-11T15:06:36.462Z,5.20
2018-05-11T15:09:05.507Z,5.00
2018-05-11T15:11:34.591Z,5.73
2018-05-11T15:14:02.942Z,8.13
2018-05-11T15:16:31.263Z,5.07
2018-05-11T15:19:00.373Z,5.90
2018-05-11T15:21:29.471Z,4.03
2018-05-11T15:23:58.539Z,3.77
2018-05-11T15:26:26.995Z,3.40
2018-05-11T15:28:55.323Z,4.20
2018-05-11T15:31:23.655Z,2.87
2018-05-11T15:33:51.956Z,4.53
2018-05-11T15:36:20.288Z,3.90
2018-05-11T15:38:48.611Z,7.90
2018-05-11T15:41:16.937Z,5.17
2018-05-11T15:43:46.007Z,5.00
2018-05-11T15:46:14.312Z,5.50
2018-05-11T15:48:43.409Z,5.20
2018-05-11T15:51:12.477Z,4.93
2018-05-11T15:53:40.837Z,6.77
2018-05-11T15:56:09.241Z,6.00
2018-05-11T15:58:37.565Z,5.87
2018-05-11T16:01:06.645Z,3.50
2018-05-11T16:03:35.750Z,5.30
2018-05-11T16:06:04.847Z,7.40
2018-05-11T16:08:34.662Z,5.30
2018-05-11T16:11:02.968Z,4.37
2018-05-11T16:13:31.352Z,5.07
2018-05-11T16:15:59.673Z,4.47
2018-05-11T16:18:28.093Z,6.43
2018-05-11T16:20:56.380Z,5.27
2018-05-11T16:23:25.533Z,4.20
2018-05-11T16:25:53.839Z,5.37
2018-05-11T16:28:22.162Z,5.17
2018-05-11T16:30:50.514Z,4.77
2018-05-11T16:33:19.598Z,2.83
2018-05-11T16:35:47.951Z,4.33
2018-05-11T16:38:16.260Z,3.63
2018-05-11T16:40:44.626Z,3.77
2018-05-11T16:43:12.944Z,4.97
2018-05-11T16:45:42.055Z,5.50
2018-05-11T16:48:12.053Z,5.17
2018-05-11T16:50:40.390Z,5.20
2018-05-11T16:53:08.705Z,3.93
2018-05-11T16:55:37.058Z,3.53
2018-05-11T16:58:05.396Z,7.10
2018-05-11T17:00:34.488Z,3.87
2018-05-11T17:03:03.653Z,3.57
2018-05-11T17:05:32.007Z,4.73
2018-05-11T17:08:00.367Z,5.27
2018-05-11T17:10:28.706Z,3.10
2018-05-11T17:12:57.026Z,4.67
2018-05-11T17:15:26.098Z,4.73
2018-05-11T17:17:54.559Z,5.87
2018-05-11T17:20:22.869Z,7.60
2018-05-11T17:22:51.320Z,7.83
2018-05-11T17:25:19.538Z,5.93
2018-05-11T17:27:47.917Z,5.20
2018-05-11T17:30:18.211Z,3.10
2018-05-11T17:32:46.614Z,4.03
2018-05-11T17:35:15.028Z,4.00
2018-05-11T17:37:44.221Z,4.40
2018-05-11T17:40:13.445Z,4.53
2018-05-11T17:42:41.868Z,5.13
2018-05-11T17:45:10.203Z,5.73
2018-05-11T17:47:39.683Z,3.63
2018-05-11T17:50:08.864Z,4.73
2018-05-11T17:52:37.177Z,4.70
2018-05-11T17:55:06.281Z,3.53
2018-05-11T17:57:34.612Z,6.17
2018-05-11T18:00:03.005Z,5.13
2018-05-11T18:02:31.925Z,6.23
2018-05-11T18:05:00.255Z,3.97
2018-05-11T18:07:28.609Z,7.80
2018-05-11T18:09:56.996Z,5.60
2018-05-11T18:12:25.353Z,6.43
2018-05-11T18:14:54.432Z,4.57
2018-05-11T18:17:22.787Z,4.93
2018-05-11T18:19:51.123Z,3.43
2018-05-11T18:22:20.248Z,5.13
2018-05-11T18:24:48.837Z,6.63
2018-05-11T18:27:17.246Z,3.57
2018-05-11T18:29:45.637Z,3.10
2018-05-11T18:32:14.126Z,6.00
2018-05-11T18:34:42.710Z,3.80
2018-05-11T18:37:11.297Z,6.47
2018-05-11T18:39:39.704Z,5.40
2018-05-11T18:42:08.268Z,5.37
2018-05-11T18:44:36.651Z,5.50
2018-05-11T18:47:05.424Z,6.00
2018-05-11T18:49:33.779Z,5.23
2018-05-11T18:52:02.872Z,5.13
2018-05-11T18:54:33.577Z,7.33
2018-05-11T18:57:01.684Z,4.60
2018-05-11T18:59:31.051Z,6.00
2018-05-11T19:02:00.171Z,5.07
2018-05-11T19:04:30.005Z,6.67
2018-05-11T19:06:59.108Z,7.17
2018-05-11T19:09:27.482Z,5.73
2018-05-11T19:11:56.589Z,8.17
2018-05-11T19:14:25.773Z,7.30
2018-05-11T19:16:54.890Z,4.37
2018-05-11T19:19:23.834Z,8.20
2018-05-11T19:21:53.545Z,4.67
2018-05-11T19:24:22.215Z,5.83
2018-05-11T19:26:50.822Z,6.30
2018-05-11T19:29:19.512Z,6.33
2018-05-11T19:31:47.964Z,6.00
2018-05-11T19:34:16.566Z,7.37
2018-05-11T19:36:45.072Z,8.20
2018-05-11T19:39:13.405Z,7.53
2018-05-11T19:41:41.772Z,5.63
2018-05-11T19:44:10.897Z,6.77
2018-05-11T19:46:39.396Z,6.43
2018-05-11T19:49:08.446Z,5.13
2018-05-11T19:51:37.618Z,6.97
2018-05-11T19:54:06.013Z,6.50
2018-05-11T19:56:34.501Z,8.87
2018-05-11T19:59:02.972Z,7.63
2018-05-11T20:01:31.269Z,7.47
2018-05-11T20:03:59.652Z,5.97
2018-05-11T20:06:28.088Z,6.43
2018-05-11T20:08:56.416Z,4.50
2018-05-11T20:11:24.742Z,8.60
2018-05-11T20:13:53.087Z,9.97
2018-05-11T20:16:21.385Z,6.40
2018-05-11T20:18:50.483Z,5.73
2018-05-11T20:21:20.062Z,8.47
2018-05-11T20:23:48.447Z,5.13
2018-05-11T20:26:16.961Z,5.73
2018-05-11T20:28:46.168Z,6.70
2018-05-11T20:31:16.466Z,5.73
2018-05-11T20:33:44.808Z,4.57
2018-05-11T20:36:13.953Z,6.43
2018-05-11T20:38:42.416Z,5.97
2018-05-11T20:41:10.745Z,6.30
2018-05-11T20:43:39.831Z,7.90
2018-05-11T20:46:09.152Z,8.10
2018-05-11T20:48:37.499Z,7.00
2018-05-11T20:51:05.833Z,7.20
2018-05-11T20:53:34.361Z,6.23
2018-05-11T20:56:02.784Z,7.00
2018-05-11T20:58:31.217Z,7.83
2018-05-11T21:00:59.610Z,9.27
2018-05-11T21:03:28.714Z,6.63
2018-05-11T21:05:57.014Z,6.83
2018-05-11T21:08:26.112Z,6.83
2018-05-11T21:10:55.274Z,6.43
2018-05-11T21:13:23.604Z,7.73
2018-05-11T21:15:52.674Z,6.97
2018-05-11T21:18:21.005Z,7.87
2018-05-11T21:20:49.306Z,6.83
2018-05-11T21:23:17.656Z,5.70
2018-05-11T21:25:46.708Z,9.23
2018-05-11T21:28:15.048Z,7.30
2018-05-11T21:30:43.369Z,8.03
2018-05-11T21:33:12.717Z,8.65
2018-05-11T21:35:41.776Z,6.23
2018-05-11T21:38:10.139Z,7.90
2018-05-11T21:40:38.461Z,7.87
2018-05-11T21:43:07.556Z,8.00
2018-05-11T21:45:35.886Z,8.50
2018-05-11T21:48:04.203Z,6.77
2018-05-11T21:50:32.566Z,6.30
2018-05-11T21:53:00.879Z,6.33
2018-05-11T21:55:29.211Z,6.10
2018-05-11T21:57:57.530Z,9.07
2018-05-11T22:00:25.865Z,7.37
2018-05-11T22:02:54.165Z,6.73
2018-05-11T22:05:22.543Z,10.67
2018-05-11T22:07:50.900Z,8.27
2018-05-11T22:10:19.256Z,6.63
2018-05-11T22:12:47.602Z,7.03
2018-05-11T22:15:15.982Z,8.43
2018-05-11T22:17:44.299Z,7.97
2018-05-11T22:20:14.152Z,10.13
2018-05-11T22:22:42.499Z,9.23
2018-05-11T22:25:10.831Z,10.43
2018-05-11T22:27:39.155Z,10.27
2018-05-11T22:30:07.463Z,9.13
2018-05-11T22:32:36.585Z,8.60
2018-05-11T22:35:04.902Z,8.97
2018-05-11T22:37:33.286Z,8.53
2018-05-11T22:40:01.588Z,8.87
2018-05-11T22:42:30.695Z,9.50
2018-05-11T22:44:59.763Z,9.07
2018-05-11T22:47:28.123Z,13.30
2018-05-11T22:49:56.448Z,10.23
2018-05-11T22:52:25.561Z,11.10
2018-05-11T22:54:54.638Z,10.33
2018-05-11T22:57:23.744Z,11.67
2018-05-11T22:59:52.914Z,12.93
2018-05-11T23:02:21.227Z,10.70
2018-05-11T23:04:49.569Z,14.30
2018-05-11T23:07:17.891Z,12.50
2018-05-11T23:09:47.022Z,12.00
2018-05-11T23:12:15.336Z,11.50
2018-05-11T23:14:43.667Z,14.80
2018-05-11T23:17:12.744Z,15.20
2018-05-11T23:19:41.125Z,12.10
2018-05-11T23:22:09.448Z,11.03
2018-05-11T23:24:37.751Z,11.27
2018-05-11T23:27:06.078Z,13.93
2018-05-11T23:29:35.222Z,14.40
2018-05-11T23:32:04.285Z,11.83
2018-05-11T23:34:33.371Z,13.50
2018-05-11T23:37:03.201Z,12.10
2018-05-11T23:39:31.561Z,10.70
2018-05-11T23:42:00.681Z,13.27
2018-05-11T23:44:29.055Z,14.20
2018-05-11T23:46:58.388Z,14.50
2018-05-11T23:49:26.818Z,14.40
2018-05-11T23:51:55.506Z,16.47
2018-05-11T23:54:23.826Z,18.17
2018-05-11T23:56:53.532Z,16.30
2018-05-11T23:59:21.998Z,14.60
